Aviation Digital Data Service (ADDS)

Output produced by METARs form (0856 UTC 19 June 2018)
found at http://www.aviationweather.gov/adds/metars/
 
METAR text: KPIT 190851Z 00000KT 10SM SCT028 SCT050 24/22 A2992 RMK AO2 SLP125 T02440217 58003
Conditions at: KPIT (PITTSBURGH , PA, US) observed 0851 UTC 19 June 2018
Temperature: 24.4°C (76°F)
Dewpoint: 21.7°C (71°F) [RH = 85%]
Pressure (altimeter): 29.92 inches Hg (1013.3 mb)
[Sea-level pressure: 1012.5 mb]
Winds: calm
Visibility: 10 or more miles (16+ km)
Ceiling: at least 12,000 feet AGL
Clouds: scattered clouds at 2800 feet AGL
scattered clouds at 5000 feet AGL
Weather: no significant weather observed at this time

METAR text: K2G4 190835Z AUTO 27007G15KT 242V302 10SM SCT011 SCT017 BKN023 21/20 A3003 RMK AO1
Conditions at: K2G4 (GARRETT CO , MD, US) observed 0835 UTC 19 June 2018
Temperature: 21.0°C (70°F)
Dewpoint: 20.0°C (68°F) [RH = 94%]
Pressure (altimeter): 30.03 inches Hg (1017.0 mb)
Winds: from the W (270 degrees) at 8 MPH (7 knots; 3.6 m/s)
gusting to 17 MPH (15 knots; 7.8 m/s)
Visibility: 10 or more miles (16+ km)
Ceiling: 2300 feet AGL
Clouds: scattered clouds at 1100 feet AGL
scattered clouds at 1700 feet AGL
broken clouds at 2300 feet AGL
Weather: automated observation with no human augmentation;
there may or may not be significant weather present at this time

METAR text: KAFJ 190756Z AUTO 27007KT 10SM FEW037 BKN048 BKN060 26/21 A2996 RMK AO2 SLP133 T02560211
Conditions at: KAFJ (WASHINGTON , PA, US) observed 0756 UTC 19 June 2018
Temperature: 25.6°C (78°F)
Dewpoint: 21.1°C (70°F) [RH = 76%]
Pressure (altimeter): 29.96 inches Hg (1014.6 mb)
[Sea-level pressure: 1013.3 mb]
Winds: from the W (270 degrees) at 8 MPH (7 knots; 3.6 m/s)
Visibility: 10 or more miles (16+ km)
Ceiling: 4800 feet AGL
Clouds: few clouds at 3700 feet AGL
broken clouds at 4800 feet AGL
broken clouds at 6000 feet AGL
Weather: automated observation with no human augmentation;
there may or may not be significant weather present at this time

METAR text: KAGC 190853Z 00000KT 10SM FEW017 BKN022 OVC028 24/22 A2992 RMK AO2 SLP125 T02440222 51004
Conditions at: KAGC (PITTSBURGH/ALLEG, PA, US) observed 0853 UTC 19 June 2018
Temperature: 24.4°C (76°F)
Dewpoint: 22.2°C (72°F) [RH = 88%]
Pressure (altimeter): 29.92 inches Hg (1013.3 mb)
[Sea-level pressure: 1012.5 mb]
Winds: calm
Visibility: 10 or more miles (16+ km)
Ceiling: 2200 feet AGL
Clouds: few clouds at 1700 feet AGL
broken clouds at 2200 feet AGL
overcast cloud deck at 2800 feet AGL
Weather: no significant weather observed at this time

METAR text: KBTP 190845Z AUTO 00000KT 3SM BR BKN008 OVC047 22/22 A2992 RMK AO2 RAE00 CIG 006V010 P0000
Conditions at: KBTP (BUTLER CO. , PA, US) observed 0845 UTC 19 June 2018
Temperature: 22.0°C (72°F)
Dewpoint: 22.0°C (72°F) [RH = 100%]
Pressure (altimeter): 29.92 inches Hg (1013.3 mb)
Winds: calm
Visibility: 3 miles (5 km)
Ceiling: 800 feet AGL
Clouds: broken clouds at 800 feet AGL
overcast cloud deck at 4700 feet AGL
Weather: BR  (mist)

METAR text: KDUJ 190853Z AUTO 26007KT 8SM BKN004 OVC065 21/21 A2992 RMK AO2 RAE52 SLP117 P0010 60028 T02110211 55004
Conditions at: KDUJ (DU BOIS , PA, US) observed 0853 UTC 19 June 2018
Temperature: 21.1°C (70°F)
Dewpoint: 21.1°C (70°F) [RH = 100%]
Pressure (altimeter): 29.92 inches Hg (1013.3 mb)
[Sea-level pressure: 1011.7 mb]
Winds: from the W (260 degrees) at 8 MPH (7 knots; 3.6 m/s)
Visibility: 8 miles (13 km)
Ceiling: 400 feet AGL
Clouds: broken clouds at 400 feet AGL
overcast cloud deck at 6500 feet AGL
Weather: automated observation with no human augmentation;
there may or may not be significant weather present at this time

METAR text: KFKL 190756Z AUTO 27006KT 7SM -RA OVC003 22/21 A2994 RMK AO2 SLP127 P0009 T02170211
Conditions at: KFKL (FRANKLIN , PA, US) observed 0756 UTC 19 June 2018
Temperature: 21.7°C (71°F)
Dewpoint: 21.1°C (70°F) [RH = 96%]
Pressure (altimeter): 29.94 inches Hg (1014.0 mb)
[Sea-level pressure: 1012.7 mb]
Winds: from the W (270 degrees) at 7 MPH (6 knots; 3.1 m/s)
Visibility: 7 miles (11 km)
Ceiling: 300 feet AGL
Clouds: overcast cloud deck at 300 feet AGL
Weather: -RA  (light rain)

METAR text: KHLG 190853Z AUTO 26006KT 10SM CLR 25/21 A2993 RMK AO2 SLP125 T02500206 58003
Conditions at: KHLG (WHEELING , WV, US) observed 0853 UTC 19 June 2018
Temperature: 25.0°C (77°F)
Dewpoint: 20.6°C (69°F) [RH = 77%]
Pressure (altimeter): 29.93 inches Hg (1013.6 mb)
[Sea-level pressure: 1012.5 mb]
Winds: from the W (260 degrees) at 7 MPH (6 knots; 3.1 m/s)
Visibility: 10 or more miles (16+ km)
Ceiling: at least 12,000 feet AGL
Clouds: sky clear below 12,000 feet AGL
Weather: automated observation with no human augmentation;
there may or may not be significant weather present at this time

METAR text: KIDI 190855Z AUTO 00000KT 6SM BR FEW016 BKN048 OVC060 22/22 A2996 RMK A01
Conditions at: KIDI (INDIANA/STEWART , PA, US) observed 0855 UTC 19 June 2018
Temperature: 22.0°C (72°F)
Dewpoint: 22.0°C (72°F) [RH = 100%]
Pressure (altimeter): 29.96 inches Hg (1014.6 mb)
Winds: calm
Visibility: 6 miles (10 km)
Ceiling: 4800 feet AGL
Clouds: few clouds at 1600 feet AGL
broken clouds at 4800 feet AGL
overcast cloud deck at 6000 feet AGL
Weather: BR  (mist)

METAR text: KLBE 190835Z AUTO 00000KT 9SM BKN034 BKN041 BKN050 24/24 A2993 RMK AO2
Conditions at: KLBE (LATROBE/WESTMORL, PA, US) observed 0835 UTC 19 June 2018
Temperature: 24.0°C (75°F)
Dewpoint: 24.0°C (75°F) [RH = 100%]
Pressure (altimeter): 29.93 inches Hg (1013.6 mb)
Winds: calm
Visibility: 9 miles (14 km)
Ceiling: 3400 feet AGL
Clouds: broken clouds at 3400 feet AGL
broken clouds at 4100 feet AGL
broken clouds at 5000 feet AGL
Weather: automated observation with no human augmentation;
there may or may not be significant weather present at this time

METAR text: KMGW 190853Z AUTO 20005KT 10SM FEW050 SCT060 OVC080 24/22 A2996 RMK AO2 SLP132 T02440217 57004
Conditions at: KMGW (MORGANTOWN , WV, US) observed 0853 UTC 19 June 2018
Temperature: 24.4°C (76°F)
Dewpoint: 21.7°C (71°F) [RH = 85%]
Pressure (altimeter): 29.96 inches Hg (1014.6 mb)
[Sea-level pressure: 1013.2 mb]
Winds: from the SSW (200 degrees) at 6 MPH (5 knots; 2.6 m/s)
Visibility: 10 or more miles (16+ km)
Ceiling: 8000 feet AGL
Clouds: few clouds at 5000 feet AGL
scattered clouds at 6000 feet AGL
overcast cloud deck at 8000 feet AGL
Weather: automated observation with no human augmentation;
there may or may not be significant weather present at this time

METAR text: KPHD 190853Z AUTO 00000KT 10SM CLR 25/22 A2993 RMK AO2 SLP125 T02500217 58002
Conditions at: KPHD (NEW PHILADELPHIA, OH, US) observed 0853 UTC 19 June 2018
Temperature: 25.0°C (77°F)
Dewpoint: 21.7°C (71°F) [RH = 82%]
Pressure (altimeter): 29.93 inches Hg (1013.6 mb)
[Sea-level pressure: 1012.5 mb]
Winds: calm
Visibility: 10 or more miles (16+ km)
Ceiling: at least 12,000 feet AGL
Clouds: sky clear below 12,000 feet AGL
Weather: automated observation with no human augmentation;
there may or may not be significant weather present at this time

METAR text: KUCP 190851Z AUTO 29004KT 9SM BKN014 BKN019 23/23 A2992 RMK AO2 RAE39 P0001
Conditions at: KUCP (NEW CASTLE MUNI , PA, US) observed 0851 UTC 19 June 2018
Temperature: 23.0°C (73°F)
Dewpoint: 23.0°C (73°F) [RH = 100%]
Pressure (altimeter): 29.92 inches Hg (1013.3 mb)
Winds: from the WNW (290 degrees) at 5 MPH (4 knots; 2.1 m/s)
Visibility: 9 miles (14 km)
Ceiling: 1400 feet AGL
Clouds: broken clouds at 1400 feet AGL
broken clouds at 1900 feet AGL
Weather: automated observation with no human augmentation;
there may or may not be significant weather present at this time

METAR text: KZZV 190853Z AUTO 25005KT 10SM CLR 25/21 A2995 RMK AO2 SLP130 T02500211 58003
Conditions at: KZZV (ZANESVILLE , OH, US) observed 0853 UTC 19 June 2018
Temperature: 25.0°C (77°F)
Dewpoint: 21.1°C (70°F) [RH = 79%]
Pressure (altimeter): 29.95 inches Hg (1014.3 mb)
[Sea-level pressure: 1013.0 mb]
Winds: from the WSW (250 degrees) at 6 MPH (5 knots; 2.6 m/s)
Visibility: 10 or more miles (16+ km)
Ceiling: at least 12,000 feet AGL
Clouds: sky clear below 12,000 feet AGL
Weather: automated observation with no human augmentation;
there may or may not be significant weather present at this time